Time;durP1;ratioP1;P1;durP2;ratioP2;P2;SDS_P1;SDS_P2;PMS_P1;PMS_P2;Temp;Humidity;BMP_temperature;BMP_pressure;BME280_temperature;BME280_humidity;BME280_pressure;Samples;Min_cycle;Max_cycle;Signal;HPM_P1;HPM_P2
2023/04/26 00:01:29;;;;;;;;;;;;;;;;;;2215383;58;2023;-25
2023/04/26 00:04:00;;;;;;;;;;;;;;;;;;2216049;66;1996;-25
2023/04/26 00:06:30;;;;;;;;;;;;;;;;;;2214716;66;2189;-25
2023/04/26 00:09:00;;;;;;;;;;;;;;;;;;2215365;66;3657;-25
2023/04/26 00:11:32;;;;;;;;;;;;;;;;;;2215701;66;2073;-25
2023/04/26 00:14:02;;;;;;;;;;;;;;;;;;2215340;66;2691;-25
2023/04/26 00:16:32;;;;;;;;;;;;;;;;;;2216030;66;2562;-24
2023/04/26 00:19:03;;;;;;;;;;;;;;;;;;2216812;66;3082;-26
2023/04/26 00:21:33;;;;;;;;;;;;;;;;;;2216773;58;2125;-25
2023/04/26 00:24:06;;;;;;;;;;;;;;;;;;2213968;59;2106;-24
2023/04/26 00:26:36;;;;;;;;;;;;;;;;;;2215533;66;2345;-25
2023/04/26 00:29:07;;;;;;;;;;;;;;;;;;2213839;66;2564;-24
2023/04/26 00:31:37;;;;;;;;;;;;;;;;;;2215863;59;2089;-25
2023/04/26 00:34:07;;;;;;;;;;;;;;;;;;2215441;58;2328;-24
2023/04/26 00:36:37;;;;;;;;;;;;;;;;;;2215865;58;2009;-25
2023/04/26 00:39:09;;;;;;;;;;;;;;;;;;2216900;66;1944;-25
2023/04/26 00:41:39;;;;;;;;;;;;;;;;;;2216969;66;1973;-25
2023/04/26 00:44:09;;;;;;;;;;;;;;;;;;2215965;66;2990;-25
2023/04/26 00:46:40;;;;;;;;;;;;;;;;;;2215072;63;2025;-26
2023/04/26 00:49:14;;;;;;;;;;;;;;;;;;2215467;66;2114;-26
2023/04/26 00:51:45;;;;;;;;;;;;;;;;;;2215960;59;1991;-26
2023/04/26 00:54:17;;;;;;;;;;;;;;;;;;2215491;58;2467;-26
2023/04/26 00:56:50;;;;;;;;;;;;;;;;;;2216276;58;2078;-26
2023/04/26 00:59:21;;;;;;;;;;;;;;;;;;2216153;66;2080;-26
2023/04/26 01:01:52;;;;;;;;;;;;;;;;;;2217382;58;1967;-26
2023/04/26 01:04:26;;;;;;;;;;;;;;;;;;2216261;58;2208;-26
2023/04/26 01:06:57;;;;;;;;;;;;;;;;;;2217874;58;2800;-26
2023/04/26 01:09:28;;;;;;;;;;;;;;;;;;2216927;58;2734;-26
2023/04/26 01:11:59;;;;;;;;;;;;;;;;;;2217296;66;2419;-26
2023/04/26 01:14:30;;;;;;;;;;;;;;;;;;2212082;59;3052;-26
2023/04/26 01:17:01;;;;;;;;;;;;;;;;;;2216047;63;2002;-26
2023/04/26 01:19:36;;;;;;;;;;;;;;;;;;2215410;66;3288;-26
2023/04/26 01:22:06;;;;;;;;;;;;;;;;;;2216595;58;2066;-26
2023/04/26 01:24:36;;;;;;;;;;;;;;;;;;2217250;66;2482;-26
2023/04/26 01:27:07;;;;;;;;;;;;;;;;;;2214997;59;2008;-26
2023/04/26 01:29:37;;;;;;;;;;;;;;;;;;2215644;66;2054;-26
2023/04/26 01:32:07;;;;;;;;;;;;;;;;;;2216151;58;2191;-26
2023/04/26 01:34:37;;;;;;;;;;;;;;;;;;2216659;58;2273;-26
2023/04/26 01:37:10;;;;;;;;;;;;;;;;;;2215756;59;2733;-26
2023/04/26 01:39:40;;;;;;;;;;;;;;;;;;2215750;59;2958;-26
2023/04/26 01:42:11;;;;;;;;;;;;;;;;;;2216347;66;2843;-26
2023/04/26 01:44:41;;;;;;;;;;;;;;;;;;2216635;59;2053;-26
2023/04/26 01:47:11;;;;;;;;;;;;;;;;;;2215369;66;2840;-26
2023/04/26 01:49:41;;;;;;;;;;;;;;;;;;2216338;66;2186;-26
2023/04/26 01:52:12;;;;;;;;;;;;;;;;;;2214526;59;2666;-26
2023/04/26 01:54:42;;;;;;;;;;;;;;;;;;2215830;58;2924;-26
2023/04/26 01:57:12;;;;;;;;;;;;;;;;;;2215119;66;2587;-26
2023/04/26 01:59:42;;;;;;;;;;;;;;;;;;2216461;66;2122;-26
2023/04/26 02:02:15;;;;;;;;;;;;;;;;;;2215898;58;2487;-26
2023/04/26 02:04:45;;;;;;;;;;;;;;;;;;2212927;59;3064;-26
2023/04/26 02:07:16;;;;;;;;;;;;;;;;;;2216120;66;3001;-26
2023/04/26 02:09:46;;;;;;;;;;;;;;;;;;2213296;66;2905;-24
2023/04/26 02:12:16;;;;;;;;;;;;;;;;;;2216306;66;2701;-24
2023/04/26 02:14:46;;;;;;;;;;;;;;;;;;2216561;66;2055;-24
2023/04/26 02:17:16;;;;;;;;;;;;;;;;;;2215554;66;2709;-24
2023/04/26 02:19:47;;;;;;;;;;;;;;;;;;2216854;66;2150;-24
2023/04/26 02:22:17;;;;;;;;;;;;;;;;;;2213185;59;2823;-24
2023/04/26 02:24:48;;;;;;;;;;;;;;;;;;2216808;66;3047;-24
2023/04/26 02:27:19;;;;;;;;;;;;;;;;;;2215430;66;2602;-24
2023/04/26 02:29:49;;;;;;;;;;;;;;;;;;2216666;59;2039;-24
2023/04/26 02:32:19;;;;;;;;;;;;;;;;;;2212603;59;2648;-23
2023/04/26 02:34:50;;;;;;;;;;;;;;;;;;2216623;66;1941;-24
2023/04/26 02:37:21;;;;;;;;;;;;;;;;;;2216185;58;1944;-24
2023/04/26 02:39:51;;;;;;;;;;;;;;;;;;2216597;66;2053;-25
2023/04/26 02:42:21;;;;;;;;;;;;;;;;;;2216344;66;1981;-24
2023/04/26 02:44:51;;;;;;;;;;;;;;;;;;2216522;66;2032;-27
2023/04/26 02:47:21;;;;;;;;;;;;;;;;;;2212079;66;2605;-27
2023/04/26 02:49:51;;;;;;;;;;;;;;;;;;2209722;66;2058;-24
2023/04/26 02:52:22;;;;;;;;;;;;;;;;;;2215010;59;2485;-24
2023/04/26 02:54:52;;;;;;;;;;;;;;;;;;2216904;58;2440;-25
2023/04/26 02:57:22;;;;;;;;;;;;;;;;;;2211972;59;2461;-24
2023/04/26 02:59:54;;;;;;;;;;;;;;;;;;2212188;66;2054;-25
2023/04/26 03:02:24;;;;;;;;;;;;;;;;;;2215756;58;2245;-24
2023/04/26 03:04:54;;;;;;;;;;;;;;;;;;2216296;66;2607;-25
2023/04/26 03:07:25;;;;;;;;;;;;;;;;;;2215752;66;2493;-26
2023/04/26 03:09:55;;;;;;;;;;;;;;;;;;2215602;66;1998;-27
2023/04/26 03:12:26;;;;;;;;;;;;;;;;;;2211259;66;1820;-26
2023/04/26 03:14:56;;;;;;;;;;;;;;;;;;2214783;58;2064;-26
2023/04/26 03:17:26;;;;;;;;;;;;;;;;;;2213407;66;2013;-26
2023/04/26 03:19:56;;;;;;;;;;;;;;;;;;2216520;66;2215;-26
2023/04/26 03:22:26;;;;;;;;;;;;;;;;;;2216422;58;2481;-26
2023/04/26 03:24:57;;;;;;;;;;;;;;;;;;2213142;66;2187;-26
2023/04/26 03:27:27;;;;;;;;;;;;;;;;;;2215636;66;2692;-26
2023/04/26 03:29:57;;;;;;;;;;;;;;;;;;2215815;58;2346;-26
2023/04/26 03:32:27;;;;;;;;;;;;;;;;;;2215220;59;2040;-26
2023/04/26 03:34:58;;;;;;;;;;;;;;;;;;2215706;66;2494;-25
2023/04/26 03:37:28;;;;;;;;;;;;;;;;;;2216219;58;3110;-25
2023/04/26 03:39:58;;;;;;;;;;;;;;;;;;2215340;59;2657;-25
2023/04/26 03:42:28;;;;;;;;;;;;;;;;;;2216501;66;2129;-25
2023/04/26 03:44:59;;;;;;;;;;;;;;;;;;2216278;66;2506;-25
2023/04/26 03:47:30;;;;;;;;;;;;;;;;;;2215309;66;2575;-23
2023/04/26 03:50:00;;;;;;;;;;;;;;;;;;2216823;66;2332;-23
2023/04/26 03:52:30;;;;;;;;;;;;;;;;;;2214939;58;2074;-23
2023/04/26 03:55:01;;;;;;;;;;;;;;;;;;2216296;58;2073;-23
2023/04/26 03:57:31;;;;;;;;;;;;;;;;;;2215302;66;2240;-23
2023/04/26 04:00:01;;;;;;;;;;;;;;;;;;2215840;66;2688;-22
2023/04/26 04:02:32;;;;;;;;;;;;;;;;;;2213682;59;2565;-23
2023/04/26 04:05:02;;;;;;;;;;;;;;;;;;2216677;58;2215;-23
2023/04/26 04:07:33;;;;;;;;;;;;;;;;;;2215580;58;2594;-24
2023/04/26 04:10:03;;;;;;;;;;;;;;;;;;2217015;66;2029;-25
2023/04/26 04:12:34;;;;;;;;;;;;;;;;;;2217502;59;2744;-25
2023/04/26 04:15:04;;;;;;;;;;;;;;;;;;2216405;58;2080;-25
2023/04/26 04:17:35;;;;;;;;;;;;;;;;;;2216281;66;2961;-22
2023/04/26 04:20:06;;;;;;;;;;;;;;;;;;2216809;58;2958;-22
2023/04/26 04:22:38;;;;;;;;;;;;;;;;;;2214869;58;1860;-23
2023/04/26 04:25:12;;;;;;;;;;;;;;;;;;2216767;66;2460;-23
2023/04/26 04:27:42;;;;;;;;;;;;;;;;;;2214789;66;3134;-26
2023/04/26 04:30:13;;;;;;;;;;;;;;;;;;2215225;58;2460;-25
2023/04/26 04:32:44;;;;;;;;;;;;;;;;;;2213513;58;2601;-24
2023/04/26 04:35:14;;;;;;;;;;;;;;;;;;2215344;66;1957;-24
2023/04/26 04:37:44;;;;;;;;;;;;;;;;;;2215588;58;3015;-24
2023/04/26 04:40:14;;;;;;;;;;;;;;;;;;2216434;66;2145;-23
2023/04/26 04:42:51;;;;;;;;;;;;;;;;;;2216923;66;2430;-23
2023/04/26 04:45:21;;;;;;;;;;;;;;;;;;2216118;59;2207;-23
2023/04/26 04:47:55;;;;;;;;;;;;;;;;;;2213705;58;1976;-23
2023/04/26 04:50:28;;;;;;;;;;;;;;;;;;2212481;66;2030;-23
2023/04/26 04:52:58;;;;;;;;;;;;;;;;;;2212954;59;1994;-23
2023/04/26 04:55:28;;;;;;;;;;;;;;;;;;2216356;58;2080;-23
2023/04/26 04:57:59;;;;;;;;;;;;;;;;;;2215596;66;2021;-23
2023/04/26 05:00:29;;;;;;;;;;;;;;;;;;2215903;58;2301;-23
2023/04/26 05:02:59;;;;;;;;;;;;;;;;;;2213701;58;2081;-23
2023/04/26 05:05:30;;;;;;;;;;;;;;;;;;2215779;58;2221;-23
2023/04/26 05:08:00;;;;;;;;;;;;;;;;;;2217103;58;1879;-25
2023/04/26 05:10:31;;;;;;;;;;;;;;;;;;2211632;59;2729;-23
2023/04/26 05:13:01;;;;;;;;;;;;;;;;;;2213159;66;2181;-23
2023/04/26 05:15:32;;;;;;;;;;;;;;;;;;2216907;66;2322;-23
2023/04/26 05:18:02;;;;;;;;;;;;;;;;;;2216653;66;1925;-23
2023/04/26 05:20:32;;;;;;;;;;;;;;;;;;2216427;58;2408;-23
2023/04/26 05:23:02;;;;;;;;;;;;;;;;;;2216871;58;2155;-23
2023/04/26 05:25:35;;;;;;;;;;;;;;;;;;2216542;66;2052;-23
2023/04/26 05:28:11;;;;;;;;;;;;;;;;;;2215241;66;2062;-24
2023/04/26 05:30:41;;;;;;;;;;;;;;;;;;2215455;59;2082;-24
2023/04/26 05:33:12;;;;;;;;;;;;;;;;;;2216147;59;2088;-24
2023/04/26 05:35:45;;;;;;;;;;;;;;;;;;2215697;59;2454;-24
2023/04/26 05:38:16;;;;;;;;;;;;;;;;;;2216544;58;2090;-24
2023/04/26 05:40:47;;;;;;;;;;;;;;;;;;2216460;66;2757;-24
2023/04/26 05:43:17;;;;;;;;;;;;;;;;;;2216137;66;2220;-26
2023/04/26 05:45:54;;;;;;;;;;;;;;;;;;2213450;66;4048;-26
2023/04/26 05:48:25;;;;;;;;;;;;;;;;;;2216470;66;2139;-24
2023/04/26 05:50:55;;;;;;;;;;;;;;;;;;2215325;66;2398;-24
2023/04/26 05:53:28;;;;;;;;;;;;;;;;;;2216413;58;2170;-24
2023/04/26 05:55:58;;;;;;;;;;;;;;;;;;2216002;58;2047;-23
2023/04/26 05:58:29;;;;;;;;;;;;;;;;;;2216218;66;2883;-23
2023/04/26 06:00:59;;;;;;;;;;;;;;;;;;2217412;58;1957;-23
2023/04/26 06:03:29;;;;;;;;;;;;;;;;;;2213851;59;2226;-23
2023/04/26 06:06:00;;;;;;;;;;;;;;;;;;2216468;58;2099;-23
2023/04/26 06:08:30;;;;;;;;;;;;;;;;;;2216419;66;2382;-23
2023/04/26 06:11:00;;;;;;;;;;;;;;;;;;2214904;66;1971;-25
2023/04/26 06:13:30;;;;;;;;;;;;;;;;;;2215890;66;2849;-23
2023/04/26 06:16:01;;;;;;;;;;;;;;;;;;2216641;66;3316;-23
2023/04/26 06:18:31;;;;;;;;;;;;;;;;;;2215638;58;2309;-23
2023/04/26 06:21:05;;;;;;;;;;;;;;;;;;2213760;59;1771;-23
2023/04/26 06:23:35;;;;;;;;;;;;;;;;;;2214692;59;2698;-23
2023/04/26 06:26:11;;;;;;;;;;;;;;;;;;2213305;58;2764;-23
2023/04/26 06:28:42;;;;;;;;;;;;;;;;;;2213354;58;2897;-23
2023/04/26 06:31:12;;;;;;;;;;;;;;;;;;2213721;58;2178;-23
2023/04/26 06:33:42;;;;;;;;;;;;;;;;;;2210425;59;2458;-24
2023/04/26 06:36:12;;;;;;;;;;;;;;;;;;2212015;58;2269;-25
2023/04/26 06:38:43;;;;;;;;;;;;;;;;;;2213247;58;2963;-23
2023/04/26 06:41:13;;;;;;;;;;;;;;;;;;2211527;58;3182;-23
2023/04/26 06:43:43;;;;;;;;;;;;;;;;;;2210184;58;2566;-24
2023/04/26 06:46:13;;;;;;;;;;;;;;;;;;2209532;58;3018;-23
2023/04/26 06:48:44;;;;;;;;;;;;;;;;;;2209865;59;3029;-23
2023/04/26 06:51:15;;;;;;;;;;;;;;;;;;2209723;59;2892;-23
2023/04/26 06:53:45;;;;;;;;;;;;;;;;;;2210516;59;3371;-23
2023/04/26 06:56:15;;;;;;;;;;;;;;;;;;2212044;58;2290;-23
2023/04/26 06:58:58;;;;;;;;;;;;;;;;;;2212416;58;2543;-23
2023/04/26 07:01:32;;;;;;;;;;;;;;;;;;2213058;58;2131;-23
2023/04/26 07:04:03;;;;;;;;;;;;;;;;;;2211201;58;2613;-23
2023/04/26 07:06:34;;;;;;;;;;;;;;;;;;2212136;58;2831;-23
2023/04/26 07:09:04;;;;;;;;;;;;;;;;;;2213199;58;2748;-23
2023/04/26 07:11:34;;;;;;;;;;;;;;;;;;2212602;58;2689;-23
2023/04/26 07:14:05;;;;;;;;;;;;;;;;;;2213539;58;2620;-23
2023/04/26 07:16:35;;;;;;;;;;;;;;;;;;2210008;59;3321;-23
2023/04/26 07:19:06;;;;;;;;;;;;;;;;;;2213455;58;2229;-23
2023/04/26 07:21:36;;;;;;;;;;;;;;;;;;2209318;59;2205;-23
2023/04/26 07:24:07;;;;;;;;;;;;;;;;;;2213881;58;2732;-23
2023/04/26 07:26:37;;;;;;;;;;;;;;;;;;2212788;58;2878;-23
2023/04/26 07:29:07;;;;;;;;;;;;;;;;;;2211026;59;2206;-23
2023/04/26 07:31:37;;;;;;;;;;;;;;;;;;2212674;58;2644;-24
2023/04/26 07:34:08;;;;;;;;;;;;;;;;;;2212975;58;2536;-23
2023/04/26 07:36:38;;;;;;;;;;;;;;;;;;2212154;58;2993;-22
2023/04/26 07:39:09;;;;;;;;;;;;;;;;;;2213071;58;2614;-22
2023/04/26 07:41:42;;;;;;;;;;;;;;;;;;2212461;58;2832;-22
2023/04/26 07:44:12;;;;;;;;;;;;;;;;;;2213012;58;2438;-24
2023/04/26 07:46:42;;;;;;;;;;;;;;;;;;2212297;58;3359;-22
2023/04/26 07:49:13;;;;;;;;;;;;;;;;;;2212875;58;2356;-22
2023/04/26 07:51:43;;;;;;;;;;;;;;;;;;2212276;58;2453;-24
2023/04/26 07:54:14;;;;;;;;;;;;;;;;;;2213741;58;2452;-22
2023/04/26 07:56:44;;;;;;;;;;;;;;;;;;2213464;58;2535;-24
2023/04/26 07:59:15;;;;;;;;;;;;;;;;;;2213252;58;2577;-24
2023/04/26 08:01:45;;;;;;;;;;;;;;;;;;2212753;58;2802;-22
2023/04/26 08:04:16;;;;;;;;;;;;;;;;;;2213259;58;2827;-24
2023/04/26 08:06:47;;;;;;;;;;;;;;;;;;2212028;58;2609;-22
2023/04/26 08:09:17;;;;;;;;;;;;;;;;;;2210723;59;2611;-24
2023/04/26 08:11:48;;;;;;;;;;;;;;;;;;2208249;59;2728;-24
2023/04/26 08:14:18;;;;;;;;;;;;;;;;;;2213302;58;2214;-24
2023/04/26 08:16:48;;;;;;;;;;;;;;;;;;2213196;58;2702;-24
2023/04/26 08:19:21;;;;;;;;;;;;;;;;;;2212849;58;2760;-24
2023/04/26 08:21:52;;;;;;;;;;;;;;;;;;2212552;58;2658;-24
2023/04/26 08:24:22;;;;;;;;;;;;;;;;;;2213607;58;2667;-24
2023/04/26 08:26:52;;;;;;;;;;;;;;;;;;2213464;58;2719;-24
2023/04/26 08:29:22;;;;;;;;;;;;;;;;;;2210784;58;2212;-22
2023/04/26 08:31:53;;;;;;;;;;;;;;;;;;2209062;59;2892;-22
2023/04/26 08:34:23;;;;;;;;;;;;;;;;;;2212905;58;3227;-23
2023/04/26 08:36:53;;;;;;;;;;;;;;;;;;2212815;58;2410;-23
2023/04/26 08:39:23;;;;;;;;;;;;;;;;;;2212502;58;2413;-23
2023/04/26 08:41:54;;;;;;;;;;;;;;;;;;2213247;58;3010;-23
2023/04/26 08:44:24;;;;;;;;;;;;;;;;;;2214066;58;2449;-23
2023/04/26 08:46:54;;;;;;;;;;;;;;;;;;2213998;59;3122;-23
2023/04/26 08:49:41;;;;;;;;;;;;;;;;;;2213593;58;2569;-23
2023/04/26 08:52:12;;;;;;;;;;;;;;;;;;2212917;58;2226;-23
2023/04/26 08:54:43;;;;;;;;;;;;;;;;;;2213762;58;2796;-23
2023/04/26 08:57:14;;;;;;;;;;;;;;;;;;2212642;58;3492;-23
2023/04/26 08:59:45;;;;;;;;;;;;;;;;;;2209638;58;3059;-23
2023/04/26 09:02:17;;;;;;;;;;;;;;;;;;2213635;58;3046;-23
2023/04/26 09:04:47;;;;;;;;;;;;;;;;;;2215319;58;2532;-23
2023/04/26 09:07:25;;;;;;;;;;;;;;;;;;2214779;66;2309;-23
2023/04/26 09:09:56;;;;;;;;;;;;;;;;;;2215296;66;3925;-23
2023/04/26 09:12:27;;;;;;;;;;;;;;;;;;2214242;66;1943;-23
2023/04/26 09:14:57;;;;;;;;;;;;;;;;;;2212077;66;3141;-23
2023/04/26 09:17:29;;;;;;;;;;;;;;;;;;2215615;58;3130;-23
2023/04/26 09:20:00;;;;;;;;;;;;;;;;;;2214896;66;2724;-23
2023/04/26 09:22:34;;;;;;;;;;;;;;;;;;2215946;63;2672;-23
2023/04/26 09:25:05;;;;;;;;;;;;;;;;;;2215815;59;2626;-23
2023/04/26 09:27:37;;;;;;;;;;;;;;;;;;2214866;66;2546;-23
2023/04/26 09:30:16;;;;;;;;;;;;;;;;;;2216484;58;2105;-23
2023/04/26 09:33:03;;;;;;;;;;;;;;;;;;2213698;58;2605;-23
2023/04/26 09:35:34;;;;;;;;;;;;;;;;;;2215129;66;2111;-23
2023/04/26 09:38:06;;;;;;;;;;;;;;;;;;2212494;59;2050;-23
2023/04/26 09:40:37;;;;;;;;;;;;;;;;;;2213311;66;2127;-23
2023/04/26 09:43:07;;;;;;;;;;;;;;;;;;2213785;66;2146;-23
2023/04/26 09:45:49;;;;;;;;;;;;;;;;;;2215826;66;3013;-23
2023/04/26 09:48:21;;;;;;;;;;;;;;;;;;2214353;66;2291;-23
2023/04/26 09:50:55;;;;;;;;;;;;;;;;;;2214822;66;2746;-23
2023/04/26 09:53:36;;;;;;;;;;;;;;;;;;2215974;59;2419;-23
2023/04/26 09:56:17;;;;;;;;;;;;;;;;;;2214430;58;2221;-23
2023/04/26 09:58:56;;;;;;;;;;;;;;;;;;2213944;58;2827;-23
2023/04/26 10:01:32;;;;;;;;;;;;;;;;;;2212373;58;2794;-23
2023/04/26 10:04:03;;;;;;;;;;;;;;;;;;2214690;58;2776;-23
2023/04/26 10:06:33;;;;;;;;;;;;;;;;;;2215747;66;2431;-23
2023/04/26 10:09:05;;;;;;;;;;;;;;;;;;2215401;59;2912;-23
2023/04/26 10:11:37;;;;;;;;;;;;;;;;;;2215910;59;2547;-23
2023/04/26 10:14:07;;;;;;;;;;;;;;;;;;2215192;59;2222;-24
2023/04/26 10:16:38;;;;;;;;;;;;;;;;;;2215011;66;2002;-23
2023/04/26 10:19:08;;;;;;;;;;;;;;;;;;2215100;58;2273;-23
2023/04/26 10:21:40;;;;;;;;;;;;;;;;;;2216984;58;2125;-22
2023/04/26 10:24:10;;;;;;;;;;;;;;;;;;2215749;58;2847;-23
2023/04/26 10:26:55;;;;;;;;;;;;;;;;;;2212645;66;2775;-23
2023/04/26 10:29:45;;;;;;;;;;;;;;;;;;2214793;59;2711;-22
2023/04/26 10:32:17;;;;;;;;;;;;;;;;;;2214622;59;2702;-22
2023/04/26 10:35:06;;;;;;;;;;;;;;;;;;2214719;58;2771;-23
2023/04/26 10:37:36;;;;;;;;;;;;;;;;;;2207615;53;3854;-21
2023/04/26 10:40:23;;;;;;;;;;;;;;;;;;2208457;59;2279;-21
2023/04/26 10:43:15;;;;;;;;;;;;;;;;;;2217691;59;2223;-21
2023/04/26 10:45:46;;;;;;;;;;;;;;;;;;2209238;59;2658;-21
2023/04/26 10:48:29;;;;;;;;;;;;;;;;;;2225866;58;3012;-21
2023/04/26 10:51:00;;;;;;;;;;;;;;;;;;2226589;59;2818;-21
2023/04/26 10:53:31;;;;;;;;;;;;;;;;;;2224115;58;2102;-21
2023/04/26 10:56:01;;;;;;;;;;;;;;;;;;2225925;58;2139;-21
2023/04/26 10:58:32;;;;;;;;;;;;;;;;;;2225129;58;2226;-21
2023/04/26 11:01:07;;;;;;;;;;;;;;;;;;2222490;58;2193;-21
2023/04/26 11:03:39;;;;;;;;;;;;;;;;;;2224851;58;2685;-21
2023/04/26 11:06:12;;;;;;;;;;;;;;;;;;2224437;58;2079;-21
2023/04/26 11:08:42;;;;;;;;;;;;;;;;;;2224168;58;2162;-21
2023/04/26 11:11:15;;;;;;;;;;;;;;;;;;2221393;66;2379;-21
2023/04/26 11:13:45;;;;;;;;;;;;;;;;;;2220316;58;2549;-20
2023/04/26 11:16:16;;;;;;;;;;;;;;;;;;2220707;58;1914;-21
2023/04/26 11:18:47;;;;;;;;;;;;;;;;;;2225560;58;2347;-20
2023/04/26 11:21:20;;;;;;;;;;;;;;;;;;2225055;58;1693;-21
2023/04/26 11:23:54;;;;;;;;;;;;;;;;;;2224470;58;2169;-21
2023/04/26 11:26:30;;;;;;;;;;;;;;;;;;2225185;58;2619;-21
2023/04/26 11:29:01;;;;;;;;;;;;;;;;;;2223557;58;3382;-25
2023/04/26 11:31:31;;;;;;;;;;;;;;;;;;2224591;58;2106;-21
2023/04/26 11:34:07;;;;;;;;;;;;;;;;;;2222073;58;3465;-21
2023/04/26 11:36:38;;;;;;;;;;;;;;;;;;2225153;58;2513;-21
2023/04/26 11:39:08;;;;;;;;;;;;;;;;;;2221349;58;2269;-21
2023/04/26 11:41:38;;;;;;;;;;;;;;;;;;2224053;66;2591;-21
2023/04/26 11:44:10;;;;;;;;;;;;;;;;;;2224426;66;2562;-21
2023/04/26 11:46:43;;;;;;;;;;;;;;;;;;2222767;58;2247;-21
2023/04/26 11:49:14;;;;;;;;;;;;;;;;;;2223787;58;2305;-21
2023/04/26 11:51:46;;;;;;;;;;;;;;;;;;2224795;58;3256;-21
2023/04/26 11:54:46;;;;;;;;;;;;;;;;;;2224976;58;2088;-21
2023/04/26 11:57:17;;;;;;;;;;;;;;;;;;2219427;58;2823;-21
2023/04/26 11:59:47;;;;;;;;;;;;;;;;;;2224737;58;2068;-20
2023/04/26 12:02:19;;;;;;;;;;;;;;;;;;2224919;58;1739;-20
2023/04/26 12:04:57;;;;;;;;;;;;;;;;;;2225241;58;2085;-21
2023/04/26 12:07:31;;;;;;;;;;;;;;;;;;2225287;58;2185;-20
2023/04/26 12:10:14;;;;;;;;;;;;;;;;;;2225415;58;3394;-20
2023/04/26 12:12:49;;;;;;;;;;;;;;;;;;2222714;59;2889;-20
2023/04/26 12:15:21;;;;;;;;;;;;;;;;;;2223734;58;2686;-20
2023/04/26 12:17:53;;;;;;;;;;;;;;;;;;2225382;66;2274;-20
2023/04/26 12:20:26;;;;;;;;;;;;;;;;;;2225926;58;2103;-20
2023/04/26 12:23:02;;;;;;;;;;;;;;;;;;2225002;58;2049;-20
2023/04/26 12:25:33;;;;;;;;;;;;;;;;;;2225412;58;2168;-20
2023/04/26 12:28:04;;;;;;;;;;;;;;;;;;2224484;59;2117;-20
2023/04/26 12:30:35;;;;;;;;;;;;;;;;;;2225004;58;2105;-20
2023/04/26 12:33:05;;;;;;;;;;;;;;;;;;2218859;58;2057;-20
2023/04/26 12:35:35;;;;;;;;;;;;;;;;;;2221218;58;2505;-20
2023/04/26 12:38:05;;;;;;;;;;;;;;;;;;2224993;58;2554;-20
2023/04/26 12:40:37;;;;;;;;;;;;;;;;;;2224584;58;2273;-20
2023/04/26 12:43:07;;;;;;;;;;;;;;;;;;2221222;66;2518;-20
2023/04/26 12:45:38;;;;;;;;;;;;;;;;;;2218965;66;2086;-20
2023/04/26 12:48:08;;;;;;;;;;;;;;;;;;2224782;58;3043;-20
2023/04/26 12:50:38;;;;;;;;;;;;;;;;;;2225676;66;2942;-20
2023/04/26 12:53:09;;;;;;;;;;;;;;;;;;2222732;58;1990;-20
2023/04/26 12:55:40;;;;;;;;;;;;;;;;;;2225629;58;2178;-20
2023/04/26 12:58:10;;;;;;;;;;;;;;;;;;2222250;63;2076;-20
2023/04/26 13:00:40;;;;;;;;;;;;;;;;;;2222858;58;1923;-20
2023/04/26 13:03:13;;;;;;;;;;;;;;;;;;2221949;58;2880;-20
2023/04/26 13:05:43;;;;;;;;;;;;;;;;;;2225083;58;3147;-20
2023/04/26 13:08:13;;;;;;;;;;;;;;;;;;2224127;66;1832;-20
2023/04/26 13:10:44;;;;;;;;;;;;;;;;;;2226175;66;2532;-20
2023/04/26 13:13:14;;;;;;;;;;;;;;;;;;2225410;66;2134;-20
2023/04/26 13:15:44;;;;;;;;;;;;;;;;;;2223552;66;2120;-20
2023/04/26 13:18:16;;;;;;;;;;;;;;;;;;2225714;66;2170;-20
2023/04/26 13:20:47;;;;;;;;;;;;;;;;;;2224269;58;2431;-20
2023/04/26 13:23:17;;;;;;;;;;;;;;;;;;2225423;59;2002;-20
2023/04/26 13:25:47;;;;;;;;;;;;;;;;;;2220057;66;2535;-20
2023/04/26 13:28:17;;;;;;;;;;;;;;;;;;2222181;59;1756;-20
2023/04/26 13:30:48;;;;;;;;;;;;;;;;;;2225354;58;2069;-20
2023/04/26 13:33:18;;;;;;;;;;;;;;;;;;2224869;58;1961;-20
2023/04/26 13:35:48;;;;;;;;;;;;;;;;;;2225558;58;2646;-20
2023/04/26 13:38:19;;;;;;;;;;;;;;;;;;2226193;66;2526;-20
2023/04/26 13:40:49;;;;;;;;;;;;;;;;;;2226963;66;2046;-20
2023/04/26 13:43:19;;;;;;;;;;;;;;;;;;2222901;59;1932;-20
2023/04/26 13:45:50;;;;;;;;;;;;;;;;;;2226871;66;2581;-20
2023/04/26 13:48:21;;;;;;;;;;;;;;;;;;2223030;59;2062;-20
2023/04/26 13:50:51;;;;;;;;;;;;;;;;;;2227007;66;2260;-20
2023/04/26 13:53:21;;;;;;;;;;;;;;;;;;2222599;58;2167;-20
2023/04/26 13:55:52;;;;;;;;;;;;;;;;;;2227998;58;2046;-20
2023/04/26 13:58:22;;;;;;;;;;;;;;;;;;2227679;66;2131;-20
2023/04/26 14:00:52;;;;;;;;;;;;;;;;;;2224880;58;2928;-20
2023/04/26 14:03:23;;;;;;;;;;;;;;;;;;2224588;58;2018;-20
2023/04/26 14:05:53;;;;;;;;;;;;;;;;;;2224388;58;2231;-20
2023/04/26 14:08:24;;;;;;;;;;;;;;;;;;2227346;58;2033;-20
2023/04/26 14:10:54;;;;;;;;;;;;;;;;;;2223893;58;1770;-20
2023/04/26 14:13:25;;;;;;;;;;;;;;;;;;2227410;66;1975;-20
2023/04/26 14:15:55;;;;;;;;;;;;;;;;;;2227943;59;1993;-20
2023/04/26 14:18:25;;;;;;;;;;;;;;;;;;2223330;58;2085;-20
2023/04/26 14:20:59;;;;;;;;;;;;;;;;;;2226814;58;2041;-20
2023/04/26 14:23:29;;;;;;;;;;;;;;;;;;2226521;58;1966;-20
2023/04/26 14:25:59;;;;;;;;;;;;;;;;;;2226356;58;1816;-20
2023/04/26 14:28:30;;;;;;;;;;;;;;;;;;2223728;66;1929;-20
2023/04/26 14:31:00;;;;;;;;;;;;;;;;;;2226178;58;1733;-20
2023/04/26 14:33:31;;;;;;;;;;;;;;;;;;2226259;58;2687;-20
2023/04/26 14:36:01;;;;;;;;;;;;;;;;;;2226656;58;2103;-20
2023/04/26 14:38:31;;;;;;;;;;;;;;;;;;2226470;66;2623;-20
2023/04/26 14:41:01;;;;;;;;;;;;;;;;;;2225916;66;1976;-20
2023/04/26 14:43:32;;;;;;;;;;;;;;;;;;2225598;58;2133;-20
2023/04/26 14:46:02;;;;;;;;;;;;;;;;;;2223011;66;2752;-20
2023/04/26 14:48:33;;;;;;;;;;;;;;;;;;2226165;58;1988;-20
2023/04/26 14:51:03;;;;;;;;;;;;;;;;;;2226179;58;1988;-20
2023/04/26 14:53:37;;;;;;;;;;;;;;;;;;2226811;58;2072;-20
2023/04/26 14:56:08;;;;;;;;;;;;;;;;;;2226590;58;2019;-20
2023/04/26 14:58:38;;;;;;;;;;;;;;;;;;2224916;66;2084;-20
2023/04/26 15:01:09;;;;;;;;;;;;;;;;;;2227575;58;3672;-20
2023/04/26 15:03:39;;;;;;;;;;;;;;;;;;2226610;58;2274;-20
2023/04/26 15:06:09;;;;;;;;;;;;;;;;;;2223474;58;2387;-20
2023/04/26 15:08:40;;;;;;;;;;;;;;;;;;2225850;58;1838;-20
2023/04/26 15:11:10;;;;;;;;;;;;;;;;;;2222858;66;2090;-20
2023/04/26 15:13:40;;;;;;;;;;;;;;;;;;2225222;58;3028;-20
2023/04/26 15:16:11;;;;;;;;;;;;;;;;;;2225249;58;3054;-20
2023/04/26 15:18:41;;;;;;;;;;;;;;;;;;2226204;66;2037;-20
2023/04/26 15:21:17;;;;;;;;;;;;;;;;;;2225757;58;1842;-20
2023/04/26 15:23:47;;;;;;;;;;;;;;;;;;2225900;66;2046;-20
2023/04/26 15:26:17;;;;;;;;;;;;;;;;;;2220059;66;2177;-20
2023/04/26 15:28:48;;;;;;;;;;;;;;;;;;2226144;66;3209;-32
2023/04/26 15:31:19;;;;;;;;;;;;;;;;;;2225337;58;2595;-20
2023/04/26 15:33:49;;;;;;;;;;;;;;;;;;2225660;58;2412;-19
2023/04/26 15:36:20;;;;;;;;;;;;;;;;;;2224832;58;1768;-19
2023/04/26 15:38:51;;;;;;;;;;;;;;;;;;2226191;66;2533;-19
2023/04/26 15:41:21;;;;;;;;;;;;;;;;;;2222567;59;2998;-20
2023/04/26 15:43:54;;;;;;;;;;;;;;;;;;2225802;66;2452;-19
2023/04/26 15:46:24;;;;;;;;;;;;;;;;;;2225587;66;2695;-19
2023/04/26 15:48:54;;;;;;;;;;;;;;;;;;2219889;66;2501;-19
2023/04/26 15:51:25;;;;;;;;;;;;;;;;;;2225292;66;1959;-19
2023/04/26 15:53:55;;;;;;;;;;;;;;;;;;2223331;58;2012;-19
2023/04/26 15:56:26;;;;;;;;;;;;;;;;;;2222781;58;2992;-19
2023/04/26 15:58:56;;;;;;;;;;;;;;;;;;2225268;63;2236;-18
2023/04/26 16:01:27;;;;;;;;;;;;;;;;;;2226140;58;2126;-19
2023/04/26 16:03:57;;;;;;;;;;;;;;;;;;2225318;58;2071;-19
2023/04/26 16:06:27;;;;;;;;;;;;;;;;;;2225106;66;2148;-19
2023/04/26 16:08:58;;;;;;;;;;;;;;;;;;2225288;58;2060;-19
2023/04/26 16:11:30;;;;;;;;;;;;;;;;;;2224949;59;2016;-18
2023/04/26 16:14:00;;;;;;;;;;;;;;;;;;2222031;58;2248;-19
2023/04/26 16:16:30;;;;;;;;;;;;;;;;;;2221998;59;2268;-19
2023/04/26 16:19:01;;;;;;;;;;;;;;;;;;2225390;59;3457;-18
2023/04/26 16:21:32;;;;;;;;;;;;;;;;;;2225013;58;1946;-19
2023/04/26 16:24:02;;;;;;;;;;;;;;;;;;2225223;66;2227;-18
2023/04/26 16:26:36;;;;;;;;;;;;;;;;;;2225225;66;3009;-18
2023/04/26 16:29:06;;;;;;;;;;;;;;;;;;2224162;59;2210;-19
2023/04/26 16:31:36;;;;;;;;;;;;;;;;;;2225408;58;2003;-18
2023/04/26 16:34:07;;;;;;;;;;;;;;;;;;2225902;58;2065;-18
2023/04/26 16:36:37;;;;;;;;;;;;;;;;;;2255140;54;3379;-23
2023/04/26 16:39:07;;;;;;;;;;;;;;;;;;2368171;62;1990;-23
2023/04/26 16:41:37;;;;;;;;;;;;;;;;;;2369033;62;1084;-23
2023/04/26 16:44:08;;;;;;;;;;;;;;;;;;2370420;62;982;-23
2023/04/26 16:46:38;;;;;;;;;;;;;;;;;;2369983;62;1215;-23
2023/04/26 16:49:09;;;;;;;;;;;;;;;;;;2370843;62;1297;-23
2023/04/26 16:51:40;;;;;;;;;;;;;;;;;;2370929;54;1102;-23
2023/04/26 16:54:11;;;;;;;;;;;;;;;;;;2370996;54;1322;-23
2023/04/26 16:56:41;;;;;;;;;;;;;;;;;;2371416;54;1264;-23
2023/04/26 16:59:11;;;;;;;;;;;;;;;;;;2371591;62;1987;-23
2023/04/26 17:01:41;;;;;;;;;;;;;;;;;;2374244;54;1479;-23
2023/04/26 17:04:12;;;;;;;;;;;;;;;;;;2370673;54;1591;-23
2023/04/26 17:06:43;;;;;;;;;;;;;;;;;;2371822;62;1222;-23
2023/04/26 17:09:13;;;;;;;;;;;;;;;;;;2370398;62;1077;-23
2023/04/26 17:11:45;;;;;;;;;;;;;;;;;;2372043;62;1166;-23
2023/04/26 17:14:15;;;;;;;;;;;;;;;;;;2371402;62;1164;-23
2023/04/26 17:16:46;;;;;;;;;;;;;;;;;;2372028;62;1141;-25
2023/04/26 17:19:16;;;;;;;;;;;;;;;;;;2367534;62;1933;-23
2023/04/26 17:21:46;;;;;;;;;;;;;;;;;;2369356;54;1200;-23
2023/04/26 17:24:16;;;;;;;;;;;;;;;;;;2385873;62;1247;-23
2023/04/26 17:26:46;;;;;;;;;;;;;;;;;;2370299;62;1134;-23
2023/04/26 17:29:17;;;;;;;;;;;;;;;;;;2367809;54;1027;-23
2023/04/26 17:31:47;;;;;;;;;;;;;;;;;;2370717;62;1413;-23